createdAt,value
2019-02-03T00:00:31.287Z,46.93
2019-02-03T00:02:58.015Z,44.70
2019-02-03T00:05:24.753Z,51.03
2019-02-03T00:07:50.781Z,46.37
2019-02-03T00:10:16.746Z,50.80
2019-02-03T00:12:42.758Z,53.10
2019-02-03T00:15:08.803Z,58.57
2019-02-03T00:17:34.817Z,50.70
2019-02-03T00:20:01.256Z,50.37
2019-02-03T00:22:27.221Z,51.60
2019-02-03T00:24:53.261Z,51.07
2019-02-03T00:27:19.250Z,46.60
2019-02-03T00:29:45.237Z,46.23
2019-02-03T00:32:11.230Z,45.03
2019-02-03T00:34:37.243Z,56.20
2019-02-03T00:37:14.778Z,49.73
2019-02-03T00:39:29.360Z,46.20
2019-02-03T00:41:55.305Z,49.47
2019-02-03T00:44:21.301Z,46.47
2019-02-03T00:46:47.290Z,44.57
2019-02-03T00:49:20.193Z,44.30
2019-02-03T00:51:46.951Z,41.70
2019-02-03T00:54:13.044Z,40.58
2019-02-03T00:56:38.997Z,49.17
2019-02-03T00:59:05.744Z,54.77
2019-02-03T01:01:32.477Z,49.37
2019-02-03T01:03:58.488Z,44.80
2019-02-03T01:06:24.576Z,48.33
2019-02-03T01:08:50.576Z,50.47
2019-02-03T01:11:16.615Z,39.60
2019-02-03T01:13:42.614Z,48.08
2019-02-03T01:16:08.631Z,44.20
2019-02-03T01:18:34.643Z,40.28
2019-02-03T01:21:02.566Z,43.87
2019-02-03T01:23:28.571Z,40.00
2019-02-03T01:25:54.578Z,42.70
2019-02-03T01:28:20.606Z,43.97
2019-02-03T01:30:46.617Z,35.92
2019-02-03T01:33:12.641Z,37.27
2019-02-03T01:35:38.618Z,37.53
2019-02-03T01:38:04.617Z,36.50
2019-02-03T01:40:30.602Z,41.40
2019-02-03T01:42:57.366Z,37.00
2019-02-03T01:45:23.370Z,36.63
2019-02-03T01:47:49.381Z,39.00
2019-02-03T01:50:16.127Z,36.33
2019-02-03T01:52:42.156Z,42.65
2019-02-03T01:55:08.974Z,41.50
2019-02-03T01:57:35.705Z,41.15
2019-02-03T02:00:01.757Z,39.28
2019-02-03T02:02:27.752Z,42.37
2019-02-03T02:04:54.517Z,44.40
2019-02-03T02:07:20.625Z,38.80
2019-02-03T02:09:46.500Z,40.63
2019-02-03T02:12:12.481Z,40.97
2019-02-03T02:14:38.494Z,36.93
2019-02-03T02:17:05.218Z,40.55
2019-02-03T02:19:31.990Z,42.88
2019-02-03T02:21:58.953Z,39.90
2019-02-03T02:24:24.948Z,40.50
2019-02-03T02:26:50.931Z,44.30
2019-02-03T02:29:17.033Z,38.57
2019-02-03T02:31:43.013Z,44.83
2019-02-03T02:34:10.109Z,43.33
2019-02-03T02:36:36.114Z,45.80
2019-02-03T02:39:02.238Z,45.45
2019-02-03T02:41:28.272Z,45.60
2019-02-03T02:43:54.280Z,40.28
2019-02-03T02:46:20.293Z,42.65
2019-02-03T02:48:46.375Z,45.93
2019-02-03T02:51:12.393Z,48.50
2019-02-03T02:53:38.394Z,50.03
2019-02-03T02:56:04.426Z,52.75
2019-02-03T02:58:30.408Z,48.65
2019-02-03T03:00:56.398Z,50.63
2019-02-03T03:03:22.395Z,54.03
2019-02-03T03:05:48.410Z,58.67
2019-02-03T03:08:19.048Z,62.62
2019-02-03T03:10:42.163Z,61.60
2019-02-03T03:13:08.186Z,65.05
2019-02-03T03:15:34.164Z,60.85
2019-02-03T03:18:00.127Z,57.80
2019-02-03T03:20:26.309Z,57.30
2019-02-03T03:22:52.142Z,59.85
2019-02-03T03:25:18.882Z,57.90
2019-02-03T03:27:45.657Z,63.78
2019-02-03T03:30:14.588Z,68.85
2019-02-03T03:32:40.597Z,62.30
2019-02-03T03:35:06.718Z,59.97
2019-02-03T03:37:32.710Z,64.18
2019-02-03T03:39:58.789Z,64.17
2019-02-03T03:42:24.776Z,64.20
2019-02-03T03:44:50.781Z,57.47
2019-02-03T03:47:16.792Z,63.37
2019-02-03T03:49:42.793Z,58.08
2019-02-03T03:52:09.580Z,57.75
2019-02-03T03:54:35.575Z,56.83
2019-02-03T03:57:01.560Z,57.80
2019-02-03T03:59:27.596Z,54.40
2019-02-03T04:01:53.702Z,62.67
2019-02-03T04:04:19.702Z,57.58
2019-02-03T04:06:45.673Z,55.00
2019-02-03T04:09:11.648Z,57.90
2019-02-03T04:11:38.498Z,57.43
2019-02-03T04:14:04.493Z,67.12
2019-02-03T04:16:30.505Z,61.80
2019-02-03T04:18:56.508Z,57.90
2019-02-03T04:21:22.513Z,59.47
2019-02-03T04:23:48.532Z,52.90
2019-02-03T04:26:15.321Z,46.65
2019-02-03T04:28:41.304Z,51.90
2019-02-03T04:31:08.086Z,54.17
2019-02-03T04:33:34.078Z,59.05
2019-02-03T04:36:00.128Z,46.87
2019-02-03T04:38:26.124Z,56.80
2019-02-03T04:40:52.193Z,53.17
2019-02-03T04:43:18.201Z,54.80
2019-02-03T04:45:44.196Z,46.37
2019-02-03T04:48:10.222Z,57.53
2019-02-03T04:50:36.207Z,50.10
2019-02-03T04:53:02.960Z,56.35
2019-02-03T04:55:29.048Z,52.50
2019-02-03T04:57:55.032Z,53.22
2019-02-03T05:00:21.966Z,51.30
2019-02-03T05:02:48.852Z,54.13
2019-02-03T05:05:14.861Z,49.17
2019-02-03T05:07:40.868Z,55.00
2019-02-03T05:10:06.852Z,53.25
2019-02-03T05:12:32.963Z,52.87
2019-02-03T05:14:58.979Z,44.17
2019-02-03T05:17:24.976Z,46.20
2019-02-03T05:19:51.130Z,55.37
2019-02-03T05:22:17.113Z,50.63
2019-02-03T05:24:43.120Z,46.07
2019-02-03T05:27:09.101Z,44.30
2019-02-03T05:29:35.105Z,48.50
2019-02-03T05:32:01.120Z,49.60
2019-02-03T05:34:27.120Z,51.80
2019-02-03T05:36:53.094Z,53.87
2019-02-03T05:39:25.019Z,51.63
2019-02-03T05:41:45.102Z,50.90
2019-02-03T05:44:11.076Z,47.75
2019-02-03T05:46:37.053Z,46.03
2019-02-03T05:50:00.723Z,50.90
2019-02-03T05:52:28.959Z,45.83
2019-02-03T05:54:55.774Z,56.35
2019-02-03T05:57:21.867Z,52.72
2019-02-03T05:59:47.897Z,44.85
2019-02-03T06:02:13.935Z,46.67
2019-02-03T06:04:40.004Z,43.33
2019-02-03T06:07:06.770Z,47.58
2019-02-03T06:09:36.835Z,47.95
2019-02-03T06:11:58.826Z,45.25
2019-02-03T06:14:24.837Z,46.17
2019-02-03T06:16:50.867Z,43.17
2019-02-03T06:19:16.931Z,44.47
2019-02-03T06:21:42.968Z,44.75
2019-02-03T06:24:09.019Z,44.55
2019-02-03T06:26:35.800Z,45.35
2019-02-03T06:29:01.852Z,45.40
2019-02-03T06:31:28.666Z,44.08
2019-02-03T06:33:54.715Z,45.47
2019-02-03T06:36:20.755Z,48.30
2019-02-03T06:38:46.787Z,41.28
2019-02-03T06:41:12.823Z,51.72
2019-02-03T06:43:38.844Z,49.10
2019-02-03T06:46:05.722Z,43.30
2019-02-03T06:48:31.758Z,46.55
2019-02-03T06:50:57.811Z,44.42
2019-02-03T06:53:24.530Z,47.03
2019-02-03T06:55:50.549Z,44.25
2019-02-03T06:58:16.604Z,43.47
2019-02-03T07:00:42.613Z,46.70
2019-02-03T07:03:08.630Z,41.28
2019-02-03T07:05:34.641Z,49.50
2019-02-03T07:08:00.826Z,46.70
2019-02-03T07:10:27.605Z,43.70
2019-02-03T07:12:53.636Z,46.10
2019-02-03T07:15:19.662Z,44.35
2019-02-03T07:17:45.702Z,41.88
2019-02-03T07:20:15.685Z,37.58
2019-02-03T07:22:41.718Z,40.22
2019-02-03T07:25:07.793Z,42.90
2019-02-03T07:27:33.810Z,41.75
2019-02-03T07:29:59.826Z,40.75
2019-02-03T07:32:25.856Z,39.80
2019-02-03T07:34:51.894Z,44.65
2019-02-03T07:37:17.917Z,37.88
2019-02-03T07:39:44.730Z,42.88
2019-02-03T07:42:10.867Z,43.80
2019-02-03T07:44:36.928Z,36.95
2019-02-03T07:47:02.926Z,42.78
2019-02-03T07:49:28.958Z,37.55
2019-02-03T07:51:56.369Z,43.60
2019-02-03T07:54:22.743Z,39.08
2019-02-03T07:56:48.871Z,41.70
2019-02-03T07:59:14.831Z,39.13
2019-02-03T08:01:40.858Z,38.50
2019-02-03T08:04:06.893Z,40.50
2019-02-03T08:06:32.922Z,35.67
2019-02-03T08:08:58.976Z,40.28
2019-02-03T08:11:32.012Z,43.38
2019-02-03T08:13:58.037Z,38.63
2019-02-03T08:16:24.118Z,43.00
2019-02-03T08:18:50.150Z,53.60
2019-02-03T08:21:16.173Z,41.42
2019-02-03T08:23:42.217Z,45.30
2019-02-03T08:26:08.275Z,37.47
2019-02-03T08:28:34.319Z,43.65
2019-02-03T08:31:00.354Z,42.70
2019-02-03T08:33:26.377Z,47.47
2019-02-03T08:35:52.409Z,45.40
2019-02-03T08:38:18.438Z,46.83
2019-02-03T08:40:45.215Z,44.78
2019-02-03T08:43:11.290Z,44.63
2019-02-03T08:45:37.317Z,34.67
2019-02-03T08:48:03.374Z,42.25
2019-02-03T08:50:30.141Z,41.30
2019-02-03T08:52:56.193Z,47.05
2019-02-03T08:55:23.174Z,41.60
2019-02-03T08:57:49.189Z,45.70
2019-02-03T09:00:18.093Z,43.25
2019-02-03T09:02:44.852Z,48.22
2019-02-03T09:05:10.883Z,42.23
2019-02-03T09:07:37.046Z,41.87
2019-02-03T09:10:02.966Z,40.30
2019-02-03T09:12:29.017Z,40.75
2019-02-03T09:14:55.031Z,38.57
2019-02-03T09:17:21.058Z,44.30
2019-02-03T09:19:54.268Z,37.00
2019-02-03T09:22:21.054Z,39.28
2019-02-03T09:24:53.051Z,39.33
2019-02-03T09:27:19.085Z,42.00
2019-02-03T09:29:45.123Z,39.50
2019-02-03T09:32:11.942Z,36.93
2019-02-03T09:34:37.974Z,33.57
2019-02-03T09:37:03.999Z,35.37
2019-02-03T09:39:30.033Z,34.57
2019-02-03T09:41:56.037Z,34.53
2019-02-03T09:44:22.045Z,33.73
2019-02-03T09:46:48.078Z,31.97
2019-02-03T09:49:14.118Z,35.53
2019-02-03T09:51:40.167Z,34.38
2019-02-03T09:54:07.188Z,35.83
2019-02-03T09:56:35.162Z,35.60
2019-02-03T09:59:01.282Z,36.57
2019-02-03T10:01:27.314Z,35.40
2019-02-03T10:03:53.366Z,31.20
2019-02-03T10:06:19.414Z,40.17
2019-02-03T10:08:45.434Z,33.73
2019-02-03T10:11:12.404Z,34.20
2019-02-03T10:13:37.528Z,32.87
2019-02-03T10:16:03.582Z,29.60
2019-02-03T10:18:29.606Z,34.00
2019-02-03T10:20:55.658Z,33.47
2019-02-03T10:23:22.594Z,32.90
2019-02-03T10:25:48.635Z,36.87
2019-02-03T10:28:14.685Z,40.40
2019-02-03T10:30:40.721Z,36.27
2019-02-03T10:33:06.757Z,32.00
2019-02-03T10:35:32.773Z,39.67
2019-02-03T10:37:58.850Z,32.90
2019-02-03T10:40:24.878Z,36.90
2019-02-03T10:42:50.912Z,36.60
2019-02-03T10:45:16.950Z,32.87
2019-02-03T10:47:42.991Z,28.60
2019-02-03T10:50:09.924Z,33.50
2019-02-03T10:52:36.008Z,34.23
2019-02-03T10:55:04.332Z,32.90
2019-02-03T10:57:28.936Z,34.60
2019-02-03T10:59:54.964Z,30.90
2019-02-03T11:02:21.069Z,34.43
2019-02-03T11:04:47.090Z,35.57
2019-02-03T11:07:13.213Z,31.53
2019-02-03T11:09:39.305Z,28.50
2019-02-03T11:12:05.323Z,32.53
2019-02-03T11:14:31.374Z,29.10
2019-02-03T11:16:58.208Z,33.50
2019-02-03T11:19:24.278Z,32.20
2019-02-03T11:21:51.097Z,32.60
2019-02-03T11:24:17.137Z,31.67
2019-02-03T11:26:43.175Z,33.23
2019-02-03T11:29:09.239Z,26.10
2019-02-03T11:31:35.269Z,30.33
2019-02-03T11:34:01.314Z,30.90
2019-02-03T11:36:27.371Z,33.67
2019-02-03T11:38:53.445Z,27.10
2019-02-03T11:41:19.498Z,32.57
2019-02-03T11:43:45.558Z,28.67
2019-02-03T11:46:12.342Z,28.43
2019-02-03T11:48:38.392Z,28.27
2019-02-03T11:51:04.420Z,28.53
2019-02-03T11:53:30.495Z,27.17
2019-02-03T11:55:56.601Z,31.23
2019-02-03T11:58:23.634Z,28.03
2019-02-03T12:00:50.468Z,28.37
2019-02-03T12:03:16.491Z,25.27
2019-02-03T12:05:42.526Z,31.80
2019-02-03T12:08:08.586Z,27.03
2019-02-03T12:10:34.664Z,22.97
2019-02-03T12:13:00.767Z,27.80
2019-02-03T12:15:26.812Z,34.13
2019-02-03T12:17:52.829Z,30.70
2019-02-03T12:20:18.962Z,29.50
2019-02-03T12:22:44.978Z,32.20
2019-02-03T12:25:12.010Z,31.67
2019-02-03T12:27:38.042Z,28.40
2019-02-03T12:30:07.080Z,26.60
2019-02-03T12:32:33.111Z,28.10
2019-02-03T12:34:59.874Z,32.93
2019-02-03T12:37:25.898Z,34.63
2019-02-03T12:39:51.929Z,30.00
2019-02-03T12:42:18.003Z,33.03
2019-02-03T12:44:44.779Z,33.50
2019-02-03T12:47:10.817Z,30.13
2019-02-03T12:49:36.855Z,30.27
2019-02-03T12:52:02.908Z,29.40
2019-02-03T12:54:28.935Z,29.23
2019-02-03T12:56:56.807Z,26.27
2019-02-03T12:59:22.766Z,24.77
2019-02-03T13:01:48.836Z,27.27
2019-02-03T13:04:14.873Z,28.10
2019-02-03T13:06:40.976Z,28.57
2019-02-03T13:09:07.873Z,23.97
2019-02-03T13:11:33.056Z,24.10
2019-02-03T13:13:59.122Z,25.07
2019-02-03T13:16:25.151Z,23.00
2019-02-03T13:18:51.183Z,28.27
2019-02-03T13:21:17.236Z,23.70
2019-02-03T13:23:45.064Z,30.10
2019-02-03T13:26:09.294Z,23.50
2019-02-03T13:28:35.512Z,25.80
2019-02-03T13:31:01.294Z,25.83
2019-02-03T13:33:27.293Z,25.90
2019-02-03T13:35:53.312Z,23.87
2019-02-03T13:38:19.331Z,27.27
2019-02-03T13:40:45.338Z,29.27
2019-02-03T13:43:11.358Z,29.20
2019-02-03T13:45:37.394Z,23.67
2019-02-03T13:48:03.410Z,27.67
2019-02-03T13:50:29.458Z,23.70
2019-02-03T13:52:55.470Z,23.90
2019-02-03T13:55:21.469Z,22.50
2019-02-03T13:57:47.501Z,25.00
2019-02-03T14:00:15.514Z,23.40
2019-02-03T14:02:41.537Z,21.53
2019-02-03T14:05:07.567Z,19.30
2019-02-03T14:07:33.584Z,19.10
2019-02-03T14:09:59.595Z,18.33
2019-02-03T14:12:25.613Z,18.80
2019-02-03T14:14:51.666Z,20.50
2019-02-03T14:17:17.710Z,19.37
2019-02-03T14:19:43.738Z,24.90
2019-02-03T14:22:09.744Z,20.17
2019-02-03T14:24:35.810Z,23.40
2019-02-03T14:27:01.835Z,25.80
2019-02-03T14:29:27.871Z,21.00
2019-02-03T14:31:53.896Z,15.97
2019-02-03T14:34:19.905Z,21.17
2019-02-03T14:36:45.939Z,20.57
2019-02-03T14:39:11.966Z,17.17
2019-02-03T14:41:37.970Z,17.90
2019-02-03T14:44:03.988Z,15.10
2019-02-03T14:46:30.009Z,16.43
2019-02-03T14:48:56.043Z,14.57
2019-02-03T14:51:22.062Z,13.40
2019-02-03T14:53:48.082Z,13.67
2019-02-03T14:56:14.098Z,17.67
2019-02-03T14:58:40.146Z,17.90
2019-02-03T15:01:07.330Z,11.93
2019-02-03T15:03:33.416Z,20.10
2019-02-03T15:05:59.359Z,13.93
2019-02-03T15:08:25.399Z,15.03
2019-02-03T15:10:51.405Z,16.33
2019-02-03T15:13:17.430Z,13.90
2019-02-03T15:15:43.441Z,10.03
2019-02-03T15:18:09.458Z,16.17
2019-02-03T15:20:35.487Z,9.17
2019-02-03T15:23:01.506Z,12.57
2019-02-03T15:25:27.522Z,10.80
2019-02-03T15:27:53.579Z,14.87
2019-02-03T15:30:21.506Z,10.80
2019-02-03T15:32:47.534Z,9.33
2019-02-03T15:35:13.582Z,10.40
2019-02-03T15:37:40.813Z,8.87
2019-02-03T15:40:07.916Z,12.57
2019-02-03T15:42:34.089Z,10.23
2019-02-03T15:45:00.334Z,10.60
2019-02-03T15:47:26.175Z,14.50
2019-02-03T15:49:52.239Z,14.03
2019-02-03T15:52:18.273Z,9.50
2019-02-03T15:54:44.334Z,10.00
2019-02-03T15:57:10.366Z,10.37
2019-02-03T15:59:36.390Z,10.07
2019-02-03T16:02:11.644Z,9.53
2019-02-03T16:04:38.574Z,10.23
2019-02-03T16:07:04.734Z,11.27
2019-02-03T16:09:33.588Z,11.27
2019-02-03T16:11:56.814Z,9.60
2019-02-03T16:14:22.995Z,8.27
2019-02-03T16:16:49.006Z,10.60
2019-02-03T16:19:15.013Z,9.10
2019-02-03T16:21:41.018Z,8.40
2019-02-03T16:24:07.042Z,8.47
2019-02-03T16:26:33.063Z,13.50
2019-02-03T16:28:59.117Z,8.00
2019-02-03T16:31:25.134Z,8.20
2019-02-03T16:33:51.507Z,7.60
2019-02-03T16:36:17.574Z,7.73
2019-02-03T16:38:43.638Z,6.43
2019-02-03T16:41:09.763Z,8.53
2019-02-03T16:43:48.379Z,7.00
2019-02-03T16:46:02.809Z,6.20
2019-02-03T16:48:29.028Z,5.97
2019-02-03T16:50:55.179Z,5.60
2019-02-03T16:53:21.154Z,7.13
2019-02-03T16:55:49.482Z,7.27
2019-02-03T16:58:15.547Z,6.90
2019-02-03T17:00:41.818Z,12.43
2019-02-03T17:03:08.542Z,3.93
2019-02-03T17:05:34.479Z,6.00
2019-02-03T17:08:00.732Z,6.63
2019-02-03T17:10:26.902Z,27.47
2019-02-03T17:12:52.901Z,30.93
2019-02-03T17:15:23.759Z,58.10
2019-02-03T17:17:49.765Z,11.10
2019-02-03T17:20:15.794Z,6.30
2019-02-03T17:22:41.982Z,8.30
2019-02-03T17:25:08.821Z,12.03
2019-02-03T17:27:34.840Z,12.17
2019-02-03T17:30:00.872Z,13.83
2019-02-03T17:32:26.890Z,8.90
2019-02-03T17:35:00.333Z,11.23
2019-02-03T17:37:26.149Z,10.00
2019-02-03T17:39:52.387Z,10.87
2019-02-03T17:42:19.425Z,6.37
2019-02-03T17:44:46.206Z,7.30
2019-02-03T17:47:12.230Z,7.40
2019-02-03T17:49:38.418Z,5.63
2019-02-03T17:52:06.649Z,6.57
2019-02-03T17:54:30.762Z,6.07
2019-02-03T17:56:56.778Z,6.43
2019-02-03T17:59:22.793Z,7.20
2019-02-03T18:01:48.826Z,4.20
2019-02-03T18:04:15.909Z,4.50
2019-02-03T18:06:42.019Z,4.50
2019-02-03T18:09:08.029Z,3.90
2019-02-03T18:11:34.063Z,3.60
2019-02-03T18:14:00.068Z,3.90
2019-02-03T18:16:26.105Z,4.33
2019-02-03T18:18:52.123Z,4.80
2019-02-03T18:21:18.134Z,3.50
2019-02-03T18:23:44.157Z,5.27
2019-02-03T18:26:10.199Z,3.27
2019-02-03T18:28:36.266Z,3.53
2019-02-03T18:31:03.018Z,4.00
2019-02-03T18:33:29.058Z,4.40
2019-02-03T18:35:55.071Z,4.83
2019-02-03T18:38:21.101Z,3.70
2019-02-03T18:40:47.138Z,7.37
2019-02-03T18:43:16.138Z,5.07
2019-02-03T18:45:42.146Z,4.80
2019-02-03T18:48:08.169Z,4.13
2019-02-03T18:50:34.182Z,6.63
2019-02-03T18:53:00.187Z,5.43
2019-02-03T18:55:30.046Z,5.40
2019-02-03T18:57:56.158Z,6.20
2019-02-03T19:00:25.237Z,5.00
2019-02-03T19:02:51.266Z,5.30
2019-02-03T19:05:18.167Z,5.00
2019-02-03T19:07:44.206Z,5.30
2019-02-03T19:10:17.276Z,7.00
2019-02-03T19:12:43.287Z,8.00
2019-02-03T19:15:10.499Z,8.50
2019-02-03T19:17:36.533Z,5.30
2019-02-03T19:20:02.579Z,6.77
2019-02-03T19:22:28.594Z,6.03
2019-02-03T19:24:54.630Z,5.80
2019-02-03T19:27:20.743Z,5.10
2019-02-03T19:29:47.347Z,6.40
2019-02-03T19:32:13.578Z,7.33
2019-02-03T19:34:39.792Z,7.17
2019-02-03T19:37:05.956Z,8.87
2019-02-03T19:39:31.838Z,6.27
2019-02-03T19:41:57.858Z,10.23
2019-02-03T19:44:23.890Z,5.47
2019-02-03T19:46:50.091Z,7.70
2019-02-03T19:49:16.604Z,6.80
2019-02-03T19:52:11.718Z,5.23
2019-02-03T19:54:37.850Z,6.30
2019-02-03T19:57:03.950Z,7.00
2019-02-03T19:59:29.974Z,6.20
2019-02-03T20:01:56.004Z,6.90
2019-02-03T20:04:22.381Z,7.60
2019-02-03T20:06:49.275Z,7.10
2019-02-03T20:09:15.294Z,7.30
2019-02-03T20:11:41.449Z,10.63
2019-02-03T20:14:08.198Z,7.63
2019-02-03T20:16:35.108Z,8.73
2019-02-03T20:19:01.130Z,7.90
2019-02-03T20:21:27.244Z,8.53
2019-02-03T20:23:53.448Z,8.83
2019-02-03T20:26:19.453Z,8.48
2019-02-03T20:28:45.471Z,7.43
2019-02-03T20:31:11.506Z,12.27
2019-02-03T20:33:37.536Z,10.53
2019-02-03T20:36:06.247Z,6.30
2019-02-03T20:38:29.551Z,9.40
2019-02-03T20:40:55.673Z,7.20
2019-02-03T20:43:21.894Z,8.80
2019-02-03T20:45:49.894Z,6.80
2019-02-03T20:48:16.802Z,8.63
2019-02-03T20:50:42.834Z,7.40
2019-02-03T20:53:08.857Z,13.10
2019-02-03T20:55:35.068Z,9.90
2019-02-03T20:58:01.131Z,10.80
2019-02-03T21:00:29.026Z,9.57
2019-02-03T21:02:55.050Z,8.70
2019-02-03T21:05:21.073Z,9.47
2019-02-03T21:07:48.241Z,6.67
2019-02-03T21:10:15.110Z,8.10
2019-02-03T21:12:41.135Z,9.07
2019-02-03T21:15:08.995Z,9.63
2019-02-03T21:17:35.004Z,8.00
2019-02-03T21:20:01.018Z,9.63
2019-02-03T21:22:27.050Z,9.70
2019-02-03T21:24:53.061Z,13.50
2019-02-03T21:27:19.088Z,9.03
2019-02-03T21:29:45.132Z,7.90
2019-02-03T21:32:11.171Z,7.57
2019-02-03T21:34:37.219Z,6.90
2019-02-03T21:37:03.984Z,7.83
2019-02-03T21:39:30.740Z,8.27
2019-02-03T21:41:56.895Z,8.63
2019-02-03T21:44:22.798Z,9.07
2019-02-03T21:46:48.813Z,8.33
2019-02-03T21:49:14.839Z,9.30
2019-02-03T21:51:40.862Z,7.40
2019-02-03T21:54:06.887Z,8.47
2019-02-03T21:56:32.928Z,6.83
2019-02-03T21:58:58.942Z,7.37
2019-02-03T22:01:24.971Z,7.60
2019-02-03T22:03:51.001Z,9.40
2019-02-03T22:06:17.061Z,8.87
2019-02-03T22:08:43.498Z,9.00
2019-02-03T22:11:09.509Z,10.43
2019-02-03T22:13:35.532Z,8.48
2019-02-03T22:16:01.543Z,9.53
2019-02-03T22:18:27.591Z,9.67
2019-02-03T22:20:53.621Z,7.45
2019-02-03T22:23:20.414Z,6.97
2019-02-03T22:25:46.454Z,8.15
2019-02-03T22:28:12.489Z,8.02
2019-02-03T22:30:38.520Z,6.37
2019-02-03T22:33:04.565Z,8.52
2019-02-03T22:35:31.318Z,8.53
2019-02-03T22:37:58.103Z,7.00
2019-02-03T22:40:24.138Z,6.80
2019-02-03T22:42:50.178Z,7.37
2019-02-03T22:45:17.806Z,5.95
2019-02-03T22:47:43.823Z,6.50
2019-02-03T22:50:10.734Z,6.23
2019-02-03T22:52:37.532Z,6.25
2019-02-03T22:55:03.543Z,9.82
2019-02-03T22:57:29.571Z,6.22
2019-02-03T22:59:55.597Z,6.50
2019-02-03T23:02:21.642Z,7.57
2019-02-03T23:04:47.670Z,6.62
2019-02-03T23:07:13.711Z,6.07
2019-02-03T23:09:41.061Z,7.62
2019-02-03T23:12:07.084Z,10.32
2019-02-03T23:14:33.101Z,8.82
2019-02-03T23:16:59.128Z,10.48
2019-02-03T23:19:25.146Z,13.32
2019-02-03T23:21:51.190Z,11.23
2019-02-03T23:24:17.203Z,8.52
2019-02-03T23:26:43.223Z,7.37
2019-02-03T23:29:09.229Z,11.18
2019-02-03T23:31:35.260Z,6.47
2019-02-03T23:34:01.310Z,10.05
2019-02-03T23:36:27.358Z,6.22
2019-02-03T23:38:53.389Z,10.35
2019-02-03T23:41:19.405Z,7.47
2019-02-03T23:43:54.447Z,10.27
2019-02-03T23:46:29.436Z,7.40
2019-02-03T23:48:46.523Z,8.13
2019-02-03T23:51:12.539Z,8.38
2019-02-03T23:53:38.562Z,6.45
2019-02-03T23:56:04.590Z,5.55
2019-02-03T23:58:30.612Z,9.80
